Flight Track Log - Related Links

Times and Time Zones

All times are in EDT time to prevent confusion due to time zone crossing. See the SKW5631 flight status page for this flight to view local times or setup timezone preferences in your user account.

Time Position Orientation Groundspeed Altitude Reporting Facility
EDT Latitude Longitude Course Direction KTS MPH feet Rate Location/Type
Sat 22:33:00 36.9115 -121.5012 135° Southeast  Level Estimated
Sat 22:34:00 36.8226 -121.3931 136° Southeast  Level Estimated
Sat 22:35:00 36.7336 -121.2852 136° Southeast  Level Estimated
Sat 22:36:00 36.6445 -121.1776 136° Southeast  Level Estimated
Sat 22:37:00 36.5553 -121.0702 136° Southeast  Level Estimated
Sat 22:38:00 36.4660 -120.9631 136° Southeast  Level Estimated
Sat 22:39:00 36.3767 -120.8562 136° Southeast  Level Estimated
Sat 22:40:00 36.2872 -120.7496 136° Southeast  Level Estimated
Sat 22:41:00 36.1976 -120.6432 136° Southeast  Level Estimated
Sat 22:42:00 36.1079 -120.5371 136° Southeast  Level Estimated
Sat 22:43:00 36.0182 -120.4312 136° Southeast  Level Estimated
Sat 22:44:00 35.9283 -120.3256 136° Southeast  Level Estimated
Sat 22:45:00 35.8384 -120.2202 136° Southeast  Level Estimated
Sat 22:46:00 35.7484 -120.1150 137° Southeast  Level Estimated
Sat 22:47:00 35.6582 -120.0101 137° Southeast  Level Estimated
Sat 22:48:00 35.5680 -119.9054 137° Southeast  Level Estimated
Sat 22:49:00 35.4777 -119.8009 137° Southeast  Level Estimated
Sat 22:50:00 35.3873 -119.6967 137° Southeast  Level Estimated
Sat 22:51:00 35.2968 -119.5927 137° Southeast  Level Estimated
Sat 22:52:00 35.2062 -119.4889 137° Southeast  Level Estimated
Sat 22:53:00 35.1156 -119.3854 137° Southeast  Level Estimated
Sat 22:54:00 35.0248 -119.2821 137° Southeast  Level Estimated
Sat 22:55:00 34.9340 -119.1790 137° Southeast  Level Estimated
Sat 22:56:00 34.8431 -119.0762 137° Southeast  Level Estimated
Sat 22:57:00 34.7520 -118.9736 137° Southeast  Level Estimated
Sat 22:58:00 34.6609 -118.8712 137° Southeast  Level Estimated
Sat 22:59:00 34.5698 -118.7690 137° Southeast  Level Estimated
Sat 23:00:00 34.4785 -118.6671 137° Southeast  Level Estimated
Sat 23:01:00 34.3871 -118.5653 137° Southeast  Level Estimated
Sat 23:02:00 34.2957 -118.4638 137° Southeast  Level Estimated
Sat 23:03:00 34.2042 -118.3626 138° Southeast  Level Estimated
Sat 23:04:00 34.2007 -118.3587 138° Southeast  Level Estimated
Sat 23:05:00 34.2007 -118.3587 140° Southeast  Level Estimated
Sat 23:06:00 34.2007 -118.3587 140° Southeast  Level Estimated
Sat 23:07:00 34.2007 -118.3587 140° Southeast  Level Estimated
Sat 23:08:00 34.2007 -118.3587 140° Southeast  Level Estimated
Sat 23:09:00 34.2007 -118.3587 140° Southeast  Level Estimated
Sat 23:10:00 34.2007 -118.3587 140° Southeast  Level Estimated
Sat 23:11:00 34.2007 -118.3587 140° Southeast  Level Estimated
Sat 23:12:00 34.2007 -118.3587 140° Southeast  Level Estimated
Sat 23:13:00 34.2007 -118.3587 140° Southeast  Level Estimated
Sat 23:14:00 34.2007 -118.3587 140° Southeast  Level Estimated
Sat 23:15:00 34.2007 -118.3587 140° Southeast  Level Estimated
Sat 23:16:00 34.2007 -118.3587 140° Southeast  Level Estimated
Sat 23:17:00 34.2007 -118.3587 140° Southeast  Level Estimated
Sat 23:18:00 34.2007 -118.3587 140° Southeast  Level Estimated
Sat 23:19:00 34.2007 -118.3587 140° Southeast  Level Estimated

Login

Don't have an account? Register now (free) for customized features, flight alerts, and more!